Time,TemperatureF,DewpointF,PressureIn,WindDirection,WindDirectionDegrees,WindSpeedMPH,WindSpeedGustMPH,Humidity,HourlyPrecipIn,Conditions,Clouds,dailyrainin,SoftwareType,DateUTC
2014-01-01 00:02:00,70.0,26.0,-100.00,North,-999,-999.0,-999.0,19,-99.99,,,0.00,,2014-01-01 00:02:00,
2014-01-01 00:22:00,67.0,26.0,-100.00,North,-999,-999.0,-999.0,21,-99.99,,,-99.99,,2014-01-01 00:22:00,
2014-01-01 00:42:00,65.0,26.0,-100.00,North,-999,-999.0,-999.0,23,-99.99,,,-99.99,,2014-01-01 00:42:00,
2014-01-01 00:52:00,65.0,26.0,-100.00,North,-999,-999.0,-999.0,23,-99.99,,,-99.99,,2014-01-01 00:52:00,
2014-01-01 01:11:00,57.0,24.0,-100.00,North,-999,-999.0,-999.0,28,-99.99,,,-99.99,,2014-01-01 01:11:00,
2014-01-01 01:21:00,57.0,24.0,-100.00,North,-999,-999.0,-999.0,28,-99.99,,,-99.99,,2014-01-01 01:21:00,
2014-01-01 02:11:00,45.0,20.0,-100.00,North,-999,-999.0,-999.0,36,-99.99,,,-99.99,,2014-01-01 02:11:00,
2014-01-01 02:22:00,45.0,20.0,-100.00,North,-999,-999.0,-999.0,36,-99.99,,,-99.99,,2014-01-01 02:22:00,
2014-01-01 03:12:00,40.0,18.0,-100.00,North,-999,-999.0,-999.0,40,-99.99,,,-99.99,,2014-01-01 03:12:00,
2014-01-01 03:43:00,39.0,18.0,-100.00,North,-999,-999.0,-999.0,42,-99.99,,,-99.99,,2014-01-01 03:43:00,
2014-01-01 04:13:00,35.0,18.0,-100.00,North,-999,-999.0,-999.0,49,-99.99,,,-99.99,,2014-01-01 04:13:00,
2014-01-01 04:23:00,35.0,18.0,-100.00,North,-999,-999.0,-999.0,49,-99.99,,,-99.99,,2014-01-01 04:23:00,
2014-01-01 04:43:00,36.0,17.0,-100.00,North,-999,-999.0,-999.0,46,-99.99,,,-99.99,,2014-01-01 04:43:00,
2014-01-01 04:53:00,36.0,17.0,-100.00,North,-999,-999.0,-999.0,46,-99.99,,,-99.99,,2014-01-01 04:53:00,
2014-01-01 05:12:00,35.0,16.0,-100.00,North,-999,-999.0,-999.0,46,-99.99,,,-99.99,,2014-01-01 05:12:00,
2014-01-01 05:22:00,35.0,16.0,-100.00,North,-999,-999.0,-999.0,46,-99.99,,,-99.99,,2014-01-01 05:22:00,
2014-01-01 05:33:00,35.0,16.0,-100.00,North,-999,-999.0,-999.0,46,-99.99,,,-99.99,,2014-01-01 05:33:00,
2014-01-01 06:12:00,32.0,15.0,-100.00,North,-999,-999.0,-999.0,49,-99.99,,,-99.99,,2014-01-01 06:12:00,
2014-01-01 06:22:00,32.0,15.0,-100.00,North,-999,-999.0,-999.0,49,-99.99,,,-99.99,,2014-01-01 06:22:00,
2014-01-01 06:52:00,31.0,15.0,-100.00,North,-999,-999.0,-999.0,50,-99.99,,,-99.99,,2014-01-01 06:52:00,
2014-01-01 07:12:00,30.0,15.0,-100.00,North,-999,-999.0,-999.0,53,-99.99,,,-99.99,,2014-01-01 07:12:00,
2014-01-01 07:22:00,30.0,15.0,-100.00,North,-999,-999.0,-999.0,53,-99.99,,,-99.99,,2014-01-01 07:22:00,
2014-01-01 08:22:00,28.0,14.0,-100.00,North,-999,-999.0,-999.0,54,-99.99,,,-99.99,,2014-01-01 08:22:00,
2014-01-01 10:23:00,26.0,13.0,-100.00,North,-999,-999.0,-999.0,57,-99.99,,,-99.99,,2014-01-01 10:23:00,
2014-01-01 12:22:00,25.0,12.0,-100.00,North,-999,-999.0,-999.0,58,-99.99,,,-99.99,,2014-01-01 12:22:00,
2014-01-01 16:23:00,24.0,12.0,-100.00,North,-999,-999.0,-999.0,59,-99.99,,,-99.99,,2014-01-01 16:23:00,
2014-01-01 16:42:00,35.0,14.0,-100.00,North,-999,-999.0,-999.0,41,-99.99,,,-99.99,,2014-01-01 16:42:00,
2014-01-01 16:53:00,35.0,14.0,-100.00,North,-999,-999.0,-999.0,41,-99.99,,,-99.99,,2014-01-01 16:53:00,
2014-01-01 17:02:00,35.0,14.0,-100.00,North,-999,-999.0,-999.0,41,-99.99,,,-99.99,,2014-01-01 17:02:00,
2014-01-01 17:22:00,45.0,15.0,-100.00,North,-999,-999.0,-999.0,30,-99.99,,,-99.99,,2014-01-01 17:22:00,
2014-01-01 17:32:00,45.0,15.0,-100.00,North,-999,-999.0,-999.0,30,-99.99,,,-99.99,,2014-01-01 17:32:00,
2014-01-01 17:52:00,56.0,16.0,-100.00,North,-999,-999.0,-999.0,20,-99.99,,,-99.99,,2014-01-01 17:52:00,
2014-01-01 18:12:00,63.0,15.0,-100.00,North,-999,-999.0,-999.0,15,-99.99,,,-99.99,,2014-01-01 18:12:00,
2014-01-01 18:22:00,63.0,15.0,-100.00,North,-999,-999.0,-999.0,15,-99.99,,,-99.99,,2014-01-01 18:22:00,
2014-01-01 18:53:00,70.0,17.0,-100.00,North,-999,-999.0,-999.0,13,-99.99,,,-99.99,,2014-01-01 18:53:00,
2014-01-01 19:11:00,74.0,16.0,-100.00,North,-999,-999.0,-999.0,11,-99.99,,,-99.99,,2014-01-01 19:11:00,
2014-01-01 19:22:00,74.0,16.0,-100.00,North,-999,-999.0,-999.0,11,-99.99,,,-99.99,,2014-01-01 19:22:00,
2014-01-01 19:33:00,74.0,16.0,-100.00,North,-999,-999.0,-999.0,11,-99.99,,,-99.99,,2014-01-01 19:33:00,
2014-01-01 19:42:00,74.0,16.0,-100.00,North,-999,-999.0,-999.0,11,-99.99,,,-99.99,,2014-01-01 19:42:00,
2014-01-01 20:12:00,75.0,15.0,-100.00,North,-999,-999.0,-999.0,10,-99.99,,,-99.99,,2014-01-01 20:12:00,
2014-01-01 20:22:00,75.0,15.0,-100.00,North,-999,-999.0,-999.0,10,-99.99,,,-99.99,,2014-01-01 20:22:00,
2014-01-01 20:53:00,75.0,15.0,-100.00,North,-999,-999.0,-999.0,10,-99.99,,,-99.99,,2014-01-01 20:53:00,
2014-01-01 21:11:00,75.0,15.0,-100.00,North,-999,-999.0,-999.0,10,-99.99,,,-99.99,,2014-01-01 21:11:00,
2014-01-01 21:22:00,75.0,15.0,-100.00,North,-999,-999.0,-999.0,10,-99.99,,,-99.99,,2014-01-01 21:22:00,
2014-01-01 21:33:00,75.0,15.0,-100.00,North,-999,-999.0,-999.0,10,-99.99,,,-99.99,,2014-01-01 21:33:00,
2014-01-01 21:53:00,74.0,16.0,-100.00,North,-999,-999.0,-999.0,11,-99.99,,,-99.99,,2014-01-01 21:53:00,
2014-01-01 22:13:00,75.0,17.0,-100.00,North,-999,-999.0,-999.0,11,-99.99,,,-99.99,,2014-01-01 22:13:00,
2014-01-01 22:23:00,75.0,17.0,-100.00,North,-999,-999.0,-999.0,11,-99.99,,,-99.99,,2014-01-01 22:23:00,
2014-01-01 22:33:00,75.0,17.0,-100.00,North,-999,-999.0,-999.0,11,-99.99,,,-99.99,,2014-01-01 22:33:00,
2014-01-01 22:53:00,74.0,16.0,-100.00,North,-999,-999.0,-999.0,11,-99.99,,,-99.99,,2014-01-01 22:53:00,
2014-01-01 23:22:00,78.0,19.0,-100.00,North,-999,-999.0,-999.0,11,-99.99,,,-99.99,,2014-01-01 23:22:00,
2014-01-01 23:42:00,75.0,23.0,-100.00,North,-999,-999.0,-999.0,14,-99.99,,,-99.99,,2014-01-01 23:42:00,
2014-01-01 23:53:00,75.0,23.0,-100.00,North,-999,-999.0,-999.0,14,-99.99,,,-99.99,,2014-01-01 23:53:00,